Decatur Airport
KDEC : now visible

Airfield :











YOU CAN JOIN US ON...

 
LOGIN :

Register | Disclaimer

   EN    FR    IT 

 









Legend :    VFR   Marginal VFR   IFR   Intensive IFR   Very Intensive IFR
Visi :
Ceiling :
>= 8 km
>= 3000ft
5 to 8 km
1000 to 3000 ft
1500m to 5 km
500 to 1000 ft
800 to 1500m
200 to 500 ft
< 800m
< 200 ft
Symbols :   Thunderstorms  Fog  Heavy snow  Heavy precipitations  Wind > 20 kt






- Airport Elevation : 682 ft
- IATA code : DEC


KDEC - Decatur

CURRENT METAR :
  • 221154Z 29007KT 10SM OVC009 11/09 A3007 RMK AO2 SLP183 T01060094 10106 20100 51000

EXPIRED METARs :
  • 221054Z 30007KT 10SM OVC008 10/09 A3007 RMK AO2 SLP183 T01000094
  • 221002Z 28009KT 7SM OVC009 10/09 A3007 RMK AO2 T01000094
  • 220954Z 28006KT 9SM OVC010 11/09 A3007 RMK AO2 SLP184 T01060094

TAF KDEC
Valid from the 22 at 12:00 until the 23 at 12:00 UTC


221120Z 2212/2312 29005KT P6SM -DZ OVC010
FM221600 29006KT P6SM OVC013
FM222100 30006KT P6SM SCT080
KZKC FIR / North America



MET'MAP, your aeronautical weather chart ! - Copyright ORBIFLY December 2007 - Disclaimer

ORBIFLY MET'MAP TEAM :

Programming & Development : Alexandra Zaïnal
Concept & original design : Baudouin d'Aumeries
Assistance for programming : Marc-Olivier Méhu
Technical & hardware support : Manuel Goepfert

Contact : metmap@orbifly.com




SOURCES & CREDITS :

   NOAA       Earth
Advisory